This is the latest recevied weather packets stored in our database for station/object SV1TGC. If no packets are shown the sender has not sent any weather packets the latest 10 day(s).
| Time | Temp. | Humidity | Pressure | Rain* | Wind** | Luminosity | Snow |
|---|---|---|---|---|---|---|---|
| 1778220334 | 18.89° C | 56% | 1019 hPa | 0 mm | - | - | - |
| 1778213434 | 16.67° C | 61% | 1016.8 hPa | 0 mm | - | - | - |
| 1778210435 | 16.11° C | 68% | 1016.5 hPa | 0 mm | - | - | - |
| 1778209534 | 16.11° C | 73% | 1016.5 hPa | 0 mm | - | - | - |
| 1778208034 | 16.11° C | 75% | 1016.8 hPa | 0 mm | - | - | - |
| 1778206565 | 16.67° C | 75% | 1016.8 hPa | 0 mm | - | - | - |
| 1778205647 | 16.67° C | 75% | 1016.7 hPa | 0 mm | - | - | - |
| 1778205332 | 17.22° C | 75% | 1016.7 hPa | 0 mm | - | - | - |
| 1778204133 | 17.22° C | 75% | 1017 hPa | 0 mm | - | - | - |
| 1778200835 | 17.22° C | 74% | 1017.6 hPa | 0 mm | - | - | - |
| 1778200535 | 17.22° C | 74% | 1017.5 hPa | 0 mm | - | - | - |
| 1778199633 | 17.22° C | 75% | 1017.5 hPa | 0 mm | - | - | - |
| 1778194850 | 17.78° C | 74% | 1018 hPa | 0 mm | - | - | - |
| 1778188233 | 18.33° C | 64% | 1018.9 hPa | 0 mm | - | - | - |
| 1778186434 | 18.33° C | 59% | 1018.9 hPa | 0 mm | - | - | - |
| 1778186134 | 18.33° C | 59% | 1019 hPa | 0 mm | - | - | - |
| 1778185851 | 18.33° C | 58% | 1018.8 hPa | 0 mm | - | - | - |
| 1778182536 | 18.89° C | 55% | 1018.7 hPa | 0 mm | - | - | - |
| 1778178034 | 18.89° C | 54% | 1018.5 hPa | 0 mm | - | - | - |
| 1778177434 | 18.89° C | 54% | 1018.5 hPa | 0 mm | - | - | - |
| 1778174734 | 18.89° C | 53% | 1018.6 hPa | 0 mm | - | - | - |
| 1778172353 | 18.89° C | 53% | 1017.7 hPa | 0 mm | - | - | - |
| 1778172036 | 18.89° C | 54% | 1017.8 hPa | 0 mm | - | - | - |
| 1778170833 | 18.89° C | 57% | 1018.2 hPa | 0 mm | - | - | - |
| 1778169934 | 19.44° C | 58% | 1017.9 hPa | 0 mm | - | - | - |
* Rain latest hour (hover to see other rain measurements)
** Current wind speed in m/s (hover to see current wind gust speed)